sensor_id;sensor_type;location;lat;lon;timestamp;P1;durP1;ratioP1;P2;durP2;ratioP2
10226;SDS011;15634;48.766;2.272;2023-03-01T00:01:25;9.10;;;6.30;;
10226;SDS011;15634;48.766;2.272;2023-03-01T00:03:55;9.50;;;5.88;;
10226;SDS011;15634;48.766;2.272;2023-03-01T00:06:22;8.55;;;6.15;;
10226;SDS011;15634;48.766;2.272;2023-03-01T00:08:49;10.75;;;6.75;;
10226;SDS011;15634;48.766;2.272;2023-03-01T00:11:17;11.25;;;6.80;;
10226;SDS011;15634;48.766;2.272;2023-03-01T00:13:45;10.75;;;6.63;;
10226;SDS011;15634;48.766;2.272;2023-03-01T00:16:15;9.38;;;6.55;;
10226;SDS011;15634;48.766;2.272;2023-03-01T00:18:43;10.80;;;6.97;;
10226;SDS011;15634;48.766;2.272;2023-03-01T00:21:11;9.90;;;6.13;;
10226;SDS011;15634;48.766;2.272;2023-03-01T00:23:38;10.60;;;6.40;;
10226;SDS011;15634;48.766;2.272;2023-03-01T00:26:05;10.75;;;6.78;;
10226;SDS011;15634;48.766;2.272;2023-03-01T00:28:33;11.18;;;6.53;;
10226;SDS011;15634;48.766;2.272;2023-03-01T00:31:02;10.65;;;6.97;;
10226;SDS011;15634;48.766;2.272;2023-03-01T00:33:30;11.18;;;7.10;;
10226;SDS011;15634;48.766;2.272;2023-03-01T00:35:57;12.43;;;7.30;;
10226;SDS011;15634;48.766;2.272;2023-03-01T00:38:25;11.70;;;6.80;;
10226;SDS011;15634;48.766;2.272;2023-03-01T00:40:52;10.70;;;6.10;;
10226;SDS011;15634;48.766;2.272;2023-03-01T00:43:19;12.45;;;7.13;;
10226;SDS011;15634;48.766;2.272;2023-03-01T00:45:46;11.30;;;6.78;;
10226;SDS011;15634;48.766;2.272;2023-03-01T00:48:12;12.70;;;7.00;;
10226;SDS011;15634;48.766;2.272;2023-03-01T00:50:39;11.15;;;6.75;;
10226;SDS011;15634;48.766;2.272;2023-03-01T00:53:06;11.57;;;7.10;;
10226;SDS011;15634;48.766;2.272;2023-03-01T00:55:34;13.18;;;7.00;;
10226;SDS011;15634;48.766;2.272;2023-03-01T00:58:02;11.18;;;6.45;;
10226;SDS011;15634;48.766;2.272;2023-03-01T01:00:28;10.68;;;6.40;;
10226;SDS011;15634;48.766;2.272;2023-03-01T01:02:55;12.57;;;7.22;;
10226;SDS011;15634;48.766;2.272;2023-03-01T01:05:21;11.43;;;6.97;;
10226;SDS011;15634;48.766;2.272;2023-03-01T01:07:48;9.55;;;6.38;;
10226;SDS011;15634;48.766;2.272;2023-03-01T01:10:15;12.27;;;6.90;;
10226;SDS011;15634;48.766;2.272;2023-03-01T01:12:45;11.73;;;7.05;;
10226;SDS011;15634;48.766;2.272;2023-03-01T01:15:11;13.70;;;7.13;;
10226;SDS011;15634;48.766;2.272;2023-03-01T01:17:39;11.55;;;6.93;;
10226;SDS011;15634;48.766;2.272;2023-03-01T01:20:06;11.98;;;7.03;;
10226;SDS011;15634;48.766;2.272;2023-03-01T01:22:33;12.48;;;6.72;;
10226;SDS011;15634;48.766;2.272;2023-03-01T01:25:00;10.15;;;7.03;;
10226;SDS011;15634;48.766;2.272;2023-03-01T01:27:26;10.05;;;7.00;;
10226;SDS011;15634;48.766;2.272;2023-03-01T01:29:54;12.65;;;7.00;;
10226;SDS011;15634;48.766;2.272;2023-03-01T01:32:21;12.15;;;7.78;;
10226;SDS011;15634;48.766;2.272;2023-03-01T01:34:47;11.05;;;6.97;;
10226;SDS011;15634;48.766;2.272;2023-03-01T01:37:14;12.07;;;6.80;;
10226;SDS011;15634;48.766;2.272;2023-03-01T01:39:41;11.43;;;7.03;;
10226;SDS011;15634;48.766;2.272;2023-03-01T01:42:09;10.27;;;7.10;;
10226;SDS011;15634;48.766;2.272;2023-03-01T01:44:40;13.23;;;7.35;;
10226;SDS011;15634;48.766;2.272;2023-03-01T01:47:11;13.30;;;7.50;;
10226;SDS011;15634;48.766;2.272;2023-03-01T01:49:40;11.63;;;7.75;;
10226;SDS011;15634;48.766;2.272;2023-03-01T01:52:09;11.63;;;6.97;;
10226;SDS011;15634;48.766;2.272;2023-03-01T01:54:41;10.52;;;6.88;;
10226;SDS011;15634;48.766;2.272;2023-03-01T01:57:11;11.55;;;7.65;;
10226;SDS011;15634;48.766;2.272;2023-03-01T01:59:41;9.75;;;6.93;;
10226;SDS011;15634;48.766;2.272;2023-03-01T02:02:11;12.20;;;7.40;;
10226;SDS011;15634;48.766;2.272;2023-03-01T02:04:38;15.25;;;7.50;;
10226;SDS011;15634;48.766;2.272;2023-03-01T02:07:06;12.27;;;7.38;;
10226;SDS011;15634;48.766;2.272;2023-03-01T02:09:37;11.63;;;7.13;;
10226;SDS011;15634;48.766;2.272;2023-03-01T02:12:04;12.93;;;7.63;;
10226;SDS011;15634;48.766;2.272;2023-03-01T02:14:32;16.42;;;7.03;;
10226;SDS011;15634;48.766;2.272;2023-03-01T02:16:58;10.18;;;6.82;;
10226;SDS011;15634;48.766;2.272;2023-03-01T02:19:30;11.77;;;7.45;;
10226;SDS011;15634;48.766;2.272;2023-03-01T02:22:06;14.15;;;8.18;;
10226;SDS011;15634;48.766;2.272;2023-03-01T02:24:38;13.63;;;7.78;;
10226;SDS011;15634;48.766;2.272;2023-03-01T02:27:10;15.45;;;7.70;;
10226;SDS011;15634;48.766;2.272;2023-03-01T02:29:38;12.23;;;7.18;;
10226;SDS011;15634;48.766;2.272;2023-03-01T02:32:05;12.55;;;7.15;;
10226;SDS011;15634;48.766;2.272;2023-03-01T02:34:31;12.77;;;7.93;;
10226;SDS011;15634;48.766;2.272;2023-03-01T02:37:00;12.68;;;7.50;;
10226;SDS011;15634;48.766;2.272;2023-03-01T02:39:30;11.30;;;7.72;;
10226;SDS011;15634;48.766;2.272;2023-03-01T02:41:58;11.50;;;7.50;;
10226;SDS011;15634;48.766;2.272;2023-03-01T02:44:25;12.20;;;6.95;;
10226;SDS011;15634;48.766;2.272;2023-03-01T02:46:55;11.88;;;7.15;;
10226;SDS011;15634;48.766;2.272;2023-03-01T02:49:24;14.93;;;8.30;;
10226;SDS011;15634;48.766;2.272;2023-03-01T02:51:59;15.02;;;7.90;;
10226;SDS011;15634;48.766;2.272;2023-03-01T02:54:33;12.25;;;7.60;;
10226;SDS011;15634;48.766;2.272;2023-03-01T02:57:05;10.90;;;7.80;;
10226;SDS011;15634;48.766;2.272;2023-03-01T02:59:32;11.38;;;7.43;;
10226;SDS011;15634;48.766;2.272;2023-03-01T03:02:07;13.30;;;8.15;;
10226;SDS011;15634;48.766;2.272;2023-03-01T03:04:34;11.35;;;7.10;;
10226;SDS011;15634;48.766;2.272;2023-03-01T03:07:00;11.38;;;7.75;;
10226;SDS011;15634;48.766;2.272;2023-03-01T03:09:27;13.88;;;8.15;;
10226;SDS011;15634;48.766;2.272;2023-03-01T03:11:54;11.80;;;7.75;;
10226;SDS011;15634;48.766;2.272;2023-03-01T03:14:21;16.52;;;7.88;;
10226;SDS011;15634;48.766;2.272;2023-03-01T03:16:49;15.75;;;8.00;;
10226;SDS011;15634;48.766;2.272;2023-03-01T03:19:20;12.32;;;7.70;;
10226;SDS011;15634;48.766;2.272;2023-03-01T03:21:47;12.27;;;7.40;;
10226;SDS011;15634;48.766;2.272;2023-03-01T03:24:14;10.20;;;7.50;;
10226;SDS011;15634;48.766;2.272;2023-03-01T03:26:41;14.20;;;7.25;;
10226;SDS011;15634;48.766;2.272;2023-03-01T03:29:08;15.75;;;8.52;;
10226;SDS011;15634;48.766;2.272;2023-03-01T03:31:35;12.88;;;7.70;;
10226;SDS011;15634;48.766;2.272;2023-03-01T03:34:02;12.32;;;8.10;;
10226;SDS011;15634;48.766;2.272;2023-03-01T03:36:30;14.15;;;8.68;;
10226;SDS011;15634;48.766;2.272;2023-03-01T03:38:57;12.25;;;7.50;;
10226;SDS011;15634;48.766;2.272;2023-03-01T03:41:24;11.38;;;7.40;;
10226;SDS011;15634;48.766;2.272;2023-03-01T03:43:50;14.18;;;7.70;;
10226;SDS011;15634;48.766;2.272;2023-03-01T03:46:17;18.33;;;8.23;;
10226;SDS011;15634;48.766;2.272;2023-03-01T03:48:44;14.88;;;8.20;;
10226;SDS011;15634;48.766;2.272;2023-03-01T03:51:12;13.98;;;7.88;;
10226;SDS011;15634;48.766;2.272;2023-03-01T03:53:41;12.07;;;7.63;;
10226;SDS011;15634;48.766;2.272;2023-03-01T03:56:08;12.18;;;7.43;;
10226;SDS011;15634;48.766;2.272;2023-03-01T03:58:35;13.30;;;7.90;;
10226;SDS011;15634;48.766;2.272;2023-03-01T04:01:02;14.60;;;8.40;;
10226;SDS011;15634;48.766;2.272;2023-03-01T04:03:29;16.23;;;8.80;;
10226;SDS011;15634;48.766;2.272;2023-03-01T04:05:58;12.15;;;8.07;;
10226;SDS011;15634;48.766;2.272;2023-03-01T04:08:25;16.38;;;8.35;;
10226;SDS011;15634;48.766;2.272;2023-03-01T04:11:00;11.80;;;7.82;;
10226;SDS011;15634;48.766;2.272;2023-03-01T04:13:48;13.77;;;7.60;;
10226;SDS011;15634;48.766;2.272;2023-03-01T04:16:15;12.55;;;7.97;;
10226;SDS011;15634;48.766;2.272;2023-03-01T04:18:42;12.40;;;8.20;;
10226;SDS011;15634;48.766;2.272;2023-03-01T04:21:09;15.18;;;8.95;;
10226;SDS011;15634;48.766;2.272;2023-03-01T04:23:36;11.60;;;7.43;;
10226;SDS011;15634;48.766;2.272;2023-03-01T04:26:04;17.20;;;8.35;;
10226;SDS011;15634;48.766;2.272;2023-03-01T04:28:31;14.75;;;8.13;;
10226;SDS011;15634;48.766;2.272;2023-03-01T04:31:02;15.18;;;8.75;;
10226;SDS011;15634;48.766;2.272;2023-03-01T04:33:37;13.73;;;8.75;;
10226;SDS011;15634;48.766;2.272;2023-03-01T04:36:04;15.27;;;8.38;;
10226;SDS011;15634;48.766;2.272;2023-03-01T04:38:33;15.32;;;8.85;;
10226;SDS011;15634;48.766;2.272;2023-03-01T04:41:02;13.98;;;8.35;;
10226;SDS011;15634;48.766;2.272;2023-03-01T04:43:30;13.50;;;8.85;;
10226;SDS011;15634;48.766;2.272;2023-03-01T04:45:59;17.42;;;8.70;;
10226;SDS011;15634;48.766;2.272;2023-03-01T04:48:27;13.00;;;7.78;;
10226;SDS011;15634;48.766;2.272;2023-03-01T04:50:54;14.57;;;8.32;;
10226;SDS011;15634;48.766;2.272;2023-03-01T04:53:20;15.77;;;8.63;;
10226;SDS011;15634;48.766;2.272;2023-03-01T04:55:47;14.18;;;8.50;;
10226;SDS011;15634;48.766;2.272;2023-03-01T04:58:14;12.88;;;8.30;;
10226;SDS011;15634;48.766;2.272;2023-03-01T05:00:42;14.00;;;8.30;;
10226;SDS011;15634;48.766;2.272;2023-03-01T05:03:08;12.52;;;8.00;;
10226;SDS011;15634;48.766;2.272;2023-03-01T05:05:36;14.02;;;8.60;;
10226;SDS011;15634;48.766;2.272;2023-03-01T05:08:05;13.43;;;8.10;;
10226;SDS011;15634;48.766;2.272;2023-03-01T05:10:33;18.08;;;9.23;;
10226;SDS011;15634;48.766;2.272;2023-03-01T05:13:01;15.10;;;8.35;;
10226;SDS011;15634;48.766;2.272;2023-03-01T05:15:29;12.15;;;8.05;;
10226;SDS011;15634;48.766;2.272;2023-03-01T05:17:59;16.15;;;8.95;;
10226;SDS011;15634;48.766;2.272;2023-03-01T05:20:26;13.98;;;8.55;;
10226;SDS011;15634;48.766;2.272;2023-03-01T05:22:54;13.27;;;8.90;;
10226;SDS011;15634;48.766;2.272;2023-03-01T05:25:23;17.25;;;8.75;;
10226;SDS011;15634;48.766;2.272;2023-03-01T05:27:50;16.63;;;8.73;;
10226;SDS011;15634;48.766;2.272;2023-03-01T05:30:17;13.07;;;8.73;;
10226;SDS011;15634;48.766;2.272;2023-03-01T05:32:45;14.27;;;8.40;;
10226;SDS011;15634;48.766;2.272;2023-03-01T05:35:15;15.02;;;8.52;;
10226;SDS011;15634;48.766;2.272;2023-03-01T05:37:42;13.20;;;8.68;;
10226;SDS011;15634;48.766;2.272;2023-03-01T05:40:10;18.30;;;8.88;;
10226;SDS011;15634;48.766;2.272;2023-03-01T05:42:41;15.82;;;8.52;;
10226;SDS011;15634;48.766;2.272;2023-03-01T05:45:09;14.05;;;8.75;;
10226;SDS011;15634;48.766;2.272;2023-03-01T05:47:35;11.75;;;8.57;;
10226;SDS011;15634;48.766;2.272;2023-03-01T05:50:02;15.98;;;8.77;;
10226;SDS011;15634;48.766;2.272;2023-03-01T05:52:30;13.55;;;9.10;;
10226;SDS011;15634;48.766;2.272;2023-03-01T05:54:57;11.57;;;8.30;;
10226;SDS011;15634;48.766;2.272;2023-03-01T05:57:23;16.58;;;9.13;;
10226;SDS011;15634;48.766;2.272;2023-03-01T05:59:50;13.18;;;8.65;;
10226;SDS011;15634;48.766;2.272;2023-03-01T06:02:17;15.70;;;8.43;;
10226;SDS011;15634;48.766;2.272;2023-03-01T06:04:44;15.05;;;9.68;;
10226;SDS011;15634;48.766;2.272;2023-03-01T06:07:11;14.80;;;8.98;;
10226;SDS011;15634;48.766;2.272;2023-03-01T06:09:39;14.00;;;8.52;;
10226;SDS011;15634;48.766;2.272;2023-03-01T06:12:06;14.30;;;9.18;;
10226;SDS011;15634;48.766;2.272;2023-03-01T06:14:33;14.88;;;9.50;;
10226;SDS011;15634;48.766;2.272;2023-03-01T06:16:59;19.90;;;9.13;;
10226;SDS011;15634;48.766;2.272;2023-03-01T06:19:26;14.85;;;8.77;;
10226;SDS011;15634;48.766;2.272;2023-03-01T06:21:53;18.73;;;9.70;;
10226;SDS011;15634;48.766;2.272;2023-03-01T06:24:20;17.35;;;10.07;;
10226;SDS011;15634;48.766;2.272;2023-03-01T06:26:48;17.83;;;9.65;;
10226;SDS011;15634;48.766;2.272;2023-03-01T06:29:15;14.40;;;9.70;;
10226;SDS011;15634;48.766;2.272;2023-03-01T06:31:41;15.52;;;10.07;;
10226;SDS011;15634;48.766;2.272;2023-03-01T06:34:08;18.75;;;10.23;;
10226;SDS011;15634;48.766;2.272;2023-03-01T06:36:38;19.60;;;10.25;;
10226;SDS011;15634;48.766;2.272;2023-03-01T06:39:05;17.17;;;10.32;;
10226;SDS011;15634;48.766;2.272;2023-03-01T06:41:32;15.43;;;10.02;;
10226;SDS011;15634;48.766;2.272;2023-03-01T06:44:04;18.10;;;11.10;;
10226;SDS011;15634;48.766;2.272;2023-03-01T06:46:31;17.67;;;10.38;;
10226;SDS011;15634;48.766;2.272;2023-03-01T06:48:58;17.25;;;10.43;;
10226;SDS011;15634;48.766;2.272;2023-03-01T06:51:25;17.45;;;11.07;;
10226;SDS011;15634;48.766;2.272;2023-03-01T06:53:52;17.23;;;10.85;;
10226;SDS011;15634;48.766;2.272;2023-03-01T06:56:18;15.82;;;10.80;;
10226;SDS011;15634;48.766;2.272;2023-03-01T06:58:45;17.38;;;10.95;;
10226;SDS011;15634;48.766;2.272;2023-03-01T07:01:13;15.75;;;11.00;;
10226;SDS011;15634;48.766;2.272;2023-03-01T07:03:40;19.35;;;10.85;;
10226;SDS011;15634;48.766;2.272;2023-03-01T07:06:09;19.50;;;10.77;;
10226;SDS011;15634;48.766;2.272;2023-03-01T07:08:36;17.55;;;10.18;;
10226;SDS011;15634;48.766;2.272;2023-03-01T07:11:03;18.55;;;11.48;;
10226;SDS011;15634;48.766;2.272;2023-03-01T07:13:30;17.55;;;11.98;;
10226;SDS011;15634;48.766;2.272;2023-03-01T07:15:57;17.63;;;11.45;;
10226;SDS011;15634;48.766;2.272;2023-03-01T07:18:26;21.20;;;12.38;;
10226;SDS011;15634;48.766;2.272;2023-03-01T07:20:52;18.70;;;12.15;;
10226;SDS011;15634;48.766;2.272;2023-03-01T07:23:19;21.83;;;12.18;;
10226;SDS011;15634;48.766;2.272;2023-03-01T07:25:50;20.00;;;12.40;;
10226;SDS011;15634;48.766;2.272;2023-03-01T07:28:17;20.63;;;12.13;;
10226;SDS011;15634;48.766;2.272;2023-03-01T07:30:44;19.38;;;13.15;;
10226;SDS011;15634;48.766;2.272;2023-03-01T07:33:11;18.75;;;11.55;;
10226;SDS011;15634;48.766;2.272;2023-03-01T07:35:39;20.00;;;12.15;;
10226;SDS011;15634;48.766;2.272;2023-03-01T07:38:06;20.20;;;12.45;;
10226;SDS011;15634;48.766;2.272;2023-03-01T07:40:33;18.73;;;12.40;;
10226;SDS011;15634;48.766;2.272;2023-03-01T07:43:00;21.27;;;12.25;;
10226;SDS011;15634;48.766;2.272;2023-03-01T07:45:27;21.00;;;12.10;;
10226;SDS011;15634;48.766;2.272;2023-03-01T07:47:54;22.58;;;12.75;;
10226;SDS011;15634;48.766;2.272;2023-03-01T07:50:21;18.63;;;11.98;;
10226;SDS011;15634;48.766;2.272;2023-03-01T07:52:50;22.75;;;12.30;;
10226;SDS011;15634;48.766;2.272;2023-03-01T07:55:17;19.33;;;12.35;;
10226;SDS011;15634;48.766;2.272;2023-03-01T07:57:45;22.23;;;13.05;;
10226;SDS011;15634;48.766;2.272;2023-03-01T08:00:13;21.75;;;13.38;;
10226;SDS011;15634;48.766;2.272;2023-03-01T08:02:40;22.17;;;12.50;;
10226;SDS011;15634;48.766;2.272;2023-03-01T08:05:07;22.30;;;12.63;;
10226;SDS011;15634;48.766;2.272;2023-03-01T08:07:34;23.27;;;12.93;;
10226;SDS011;15634;48.766;2.272;2023-03-01T08:10:02;23.75;;;13.60;;
10226;SDS011;15634;48.766;2.272;2023-03-01T08:12:29;21.27;;;12.73;;
10226;SDS011;15634;48.766;2.272;2023-03-01T08:14:55;20.60;;;12.73;;
10226;SDS011;15634;48.766;2.272;2023-03-01T08:17:22;20.63;;;12.38;;
10226;SDS011;15634;48.766;2.272;2023-03-01T08:19:49;28.55;;;12.98;;
10226;SDS011;15634;48.766;2.272;2023-03-01T08:22:16;20.90;;;13.20;;
10226;SDS011;15634;48.766;2.272;2023-03-01T08:24:42;19.05;;;11.75;;
10226;SDS011;15634;48.766;2.272;2023-03-01T08:27:10;21.08;;;12.13;;
10226;SDS011;15634;48.766;2.272;2023-03-01T08:29:38;20.23;;;12.35;;
10226;SDS011;15634;48.766;2.272;2023-03-01T08:32:04;20.60;;;12.90;;
10226;SDS011;15634;48.766;2.272;2023-03-01T08:34:31;21.65;;;12.90;;
10226;SDS011;15634;48.766;2.272;2023-03-01T08:37:00;21.30;;;11.82;;
10226;SDS011;15634;48.766;2.272;2023-03-01T08:39:27;22.52;;;13.18;;
10226;SDS011;15634;48.766;2.272;2023-03-01T08:41:54;19.95;;;11.93;;
10226;SDS011;15634;48.766;2.272;2023-03-01T08:44:22;23.73;;;13.23;;
10226;SDS011;15634;48.766;2.272;2023-03-01T08:46:49;21.88;;;13.32;;
10226;SDS011;15634;48.766;2.272;2023-03-01T08:49:18;23.20;;;13.65;;
10226;SDS011;15634;48.766;2.272;2023-03-01T08:51:46;19.80;;;12.40;;
10226;SDS011;15634;48.766;2.272;2023-03-01T08:54:14;19.50;;;12.90;;
10226;SDS011;15634;48.766;2.272;2023-03-01T08:56:41;19.38;;;12.70;;
10226;SDS011;15634;48.766;2.272;2023-03-01T08:59:08;21.65;;;13.80;;
10226;SDS011;15634;48.766;2.272;2023-03-01T09:01:37;23.42;;;12.57;;
10226;SDS011;15634;48.766;2.272;2023-03-01T09:04:05;21.67;;;13.25;;
10226;SDS011;15634;48.766;2.272;2023-03-01T09:06:32;19.20;;;12.30;;
10226;SDS011;15634;48.766;2.272;2023-03-01T09:08:59;22.67;;;12.90;;
10226;SDS011;15634;48.766;2.272;2023-03-01T09:11:26;20.20;;;12.93;;
10226;SDS011;15634;48.766;2.272;2023-03-01T09:13:54;20.85;;;14.07;;
10226;SDS011;15634;48.766;2.272;2023-03-01T09:16:22;23.45;;;13.13;;
10226;SDS011;15634;48.766;2.272;2023-03-01T09:18:51;20.92;;;13.25;;
10226;SDS011;15634;48.766;2.272;2023-03-01T09:21:19;18.83;;;12.45;;
10226;SDS011;15634;48.766;2.272;2023-03-01T09:23:48;21.35;;;12.82;;
10226;SDS011;15634;48.766;2.272;2023-03-01T09:26:15;22.58;;;12.43;;
10226;SDS011;15634;48.766;2.272;2023-03-01T09:28:44;17.95;;;11.55;;
10226;SDS011;15634;48.766;2.272;2023-03-01T09:31:15;27.60;;;13.48;;
10226;SDS011;15634;48.766;2.272;2023-03-01T09:33:42;19.00;;;11.15;;
10226;SDS011;15634;48.766;2.272;2023-03-01T09:36:13;24.75;;;13.10;;
10226;SDS011;15634;48.766;2.272;2023-03-01T09:38:41;21.10;;;13.07;;
10226;SDS011;15634;48.766;2.272;2023-03-01T09:41:11;23.45;;;13.98;;
10226;SDS011;15634;48.766;2.272;2023-03-01T09:43:50;22.15;;;12.98;;
10226;SDS011;15634;48.766;2.272;2023-03-01T09:46:19;20.65;;;13.07;;
10226;SDS011;15634;48.766;2.272;2023-03-01T09:48:48;20.05;;;12.98;;
10226;SDS011;15634;48.766;2.272;2023-03-01T09:51:22;23.77;;;12.82;;
10226;SDS011;15634;48.766;2.272;2023-03-01T09:53:52;25.23;;;12.70;;
10226;SDS011;15634;48.766;2.272;2023-03-01T09:56:22;19.48;;;12.27;;
10226;SDS011;15634;48.766;2.272;2023-03-01T09:58:53;21.33;;;12.52;;
10226;SDS011;15634;48.766;2.272;2023-03-01T10:01:26;21.05;;;12.02;;
10226;SDS011;15634;48.766;2.272;2023-03-01T10:04:00;19.88;;;12.63;;
10226;SDS011;15634;48.766;2.272;2023-03-01T10:06:39;21.42;;;12.90;;
10226;SDS011;15634;48.766;2.272;2023-03-01T10:09:11;20.70;;;12.93;;
10226;SDS011;15634;48.766;2.272;2023-03-01T10:11:41;21.52;;;13.70;;
10226;SDS011;15634;48.766;2.272;2023-03-01T10:14:13;22.20;;;12.50;;
10226;SDS011;15634;48.766;2.272;2023-03-01T10:16:46;22.35;;;13.65;;
10226;SDS011;15634;48.766;2.272;2023-03-01T10:19:17;22.25;;;12.15;;
10226;SDS011;15634;48.766;2.272;2023-03-01T10:21:51;20.98;;;11.90;;
10226;SDS011;15634;48.766;2.272;2023-03-01T10:24:18;23.33;;;12.40;;
10226;SDS011;15634;48.766;2.272;2023-03-01T10:26:53;22.00;;;12.40;;
10226;SDS011;15634;48.766;2.272;2023-03-01T10:29:22;24.20;;;13.95;;
10226;SDS011;15634;48.766;2.272;2023-03-01T10:31:51;21.27;;;12.35;;
10226;SDS011;15634;48.766;2.272;2023-03-01T10:34:20;20.80;;;13.27;;
10226;SDS011;15634;48.766;2.272;2023-03-01T10:36:49;22.05;;;13.50;;
10226;SDS011;15634;48.766;2.272;2023-03-01T10:39:22;19.17;;;12.18;;
10226;SDS011;15634;48.766;2.272;2023-03-01T10:41:56;21.25;;;13.15;;
10226;SDS011;15634;48.766;2.272;2023-03-01T10:44:42;25.15;;;13.55;;
10226;SDS011;15634;48.766;2.272;2023-03-01T10:47:19;24.75;;;13.90;;
10226;SDS011;15634;48.766;2.272;2023-03-01T10:49:54;21.85;;;13.85;;
10226;SDS011;15634;48.766;2.272;2023-03-01T10:52:28;22.45;;;13.23;;
10226;SDS011;15634;48.766;2.272;2023-03-01T10:54:57;19.98;;;12.70;;
10226;SDS011;15634;48.766;2.272;2023-03-01T10:57:29;23.13;;;13.55;;
10226;SDS011;15634;48.766;2.272;2023-03-01T11:00:00;20.07;;;13.57;;
10226;SDS011;15634;48.766;2.272;2023-03-01T11:02:40;21.10;;;13.52;;
10226;SDS011;15634;48.766;2.272;2023-03-01T11:05:15;22.25;;;13.27;;
10226;SDS011;15634;48.766;2.272;2023-03-01T11:07:49;20.88;;;13.25;;
10226;SDS011;15634;48.766;2.272;2023-03-01T11:10:17;22.88;;;13.60;;
10226;SDS011;15634;48.766;2.272;2023-03-01T11:12:45;24.35;;;13.98;;
10226;SDS011;15634;48.766;2.272;2023-03-01T11:15:19;23.25;;;13.25;;
10226;SDS011;15634;48.766;2.272;2023-03-01T11:17:47;16.67;;;11.00;;
10226;SDS011;15634;48.766;2.272;2023-03-01T11:20:17;20.48;;;12.70;;
10226;SDS011;15634;48.766;2.272;2023-03-01T11:22:53;21.45;;;13.52;;
10226;SDS011;15634;48.766;2.272;2023-03-01T11:25:23;21.88;;;13.23;;
10226;SDS011;15634;48.766;2.272;2023-03-01T11:27:51;20.25;;;12.63;;
10226;SDS011;15634;48.766;2.272;2023-03-01T11:30:19;21.92;;;13.82;;
10226;SDS011;15634;48.766;2.272;2023-03-01T11:32:50;23.95;;;13.63;;
10226;SDS011;15634;48.766;2.272;2023-03-01T11:35:24;21.45;;;13.45;;
10226;SDS011;15634;48.766;2.272;2023-03-01T11:37:58;25.65;;;13.07;;
10226;SDS011;15634;48.766;2.272;2023-03-01T11:40:29;22.25;;;13.70;;
10226;SDS011;15634;48.766;2.272;2023-03-01T11:43:01;21.48;;;13.13;;
10226;SDS011;15634;48.766;2.272;2023-03-01T11:45:35;19.15;;;12.80;;
10226;SDS011;15634;48.766;2.272;2023-03-01T11:50:35;20.52;;;11.82;;
10226;SDS011;15634;48.766;2.272;2023-03-01T11:53:17;21.80;;;13.65;;
10226;SDS011;15634;48.766;2.272;2023-03-01T11:56:03;23.40;;;13.93;;
10226;SDS011;15634;48.766;2.272;2023-03-01T11:58:38;20.73;;;13.00;;
10226;SDS011;15634;48.766;2.272;2023-03-01T12:01:15;23.13;;;12.93;;
10226;SDS011;15634;48.766;2.272;2023-03-01T12:04:01;23.35;;;13.80;;
10226;SDS011;15634;48.766;2.272;2023-03-01T12:06:50;26.17;;;15.13;;
10226;SDS011;15634;48.766;2.272;2023-03-01T12:09:24;25.17;;;14.00;;
10226;SDS011;15634;48.766;2.272;2023-03-01T12:12:02;20.50;;;11.80;;
10226;SDS011;15634;48.766;2.272;2023-03-01T12:14:44;20.63;;;11.95;;
10226;SDS011;15634;48.766;2.272;2023-03-01T12:17:21;18.60;;;11.68;;
10226;SDS011;15634;48.766;2.272;2023-03-01T12:20:08;20.52;;;11.93;;
10226;SDS011;15634;48.766;2.272;2023-03-01T12:22:44;21.58;;;12.30;;
10226;SDS011;15634;48.766;2.272;2023-03-01T12:25:29;20.85;;;13.23;;
10226;SDS011;15634;48.766;2.272;2023-03-01T12:28:10;19.55;;;12.65;;
10226;SDS011;15634;48.766;2.272;2023-03-01T12:31:04;17.85;;;11.98;;
10226;SDS011;15634;48.766;2.272;2023-03-01T12:33:39;23.42;;;12.52;;
10226;SDS011;15634;48.766;2.272;2023-03-01T12:39:08;22.50;;;13.23;;
10226;SDS011;15634;48.766;2.272;2023-03-01T12:41:46;22.52;;;13.60;;
10226;SDS011;15634;48.766;2.272;2023-03-01T12:44:24;21.23;;;13.67;;
10226;SDS011;15634;48.766;2.272;2023-03-01T12:49:47;18.88;;;13.02;;
10226;SDS011;15634;48.766;2.272;2023-03-01T12:52:16;20.17;;;12.65;;
10226;SDS011;15634;48.766;2.272;2023-03-01T12:54:47;20.65;;;13.10;;
10226;SDS011;15634;48.766;2.272;2023-03-01T12:57:17;22.20;;;14.23;;
10226;SDS011;15634;48.766;2.272;2023-03-01T13:00:00;24.40;;;13.63;;
10226;SDS011;15634;48.766;2.272;2023-03-01T13:02:35;22.27;;;14.05;;
10226;SDS011;15634;48.766;2.272;2023-03-01T13:05:17;22.70;;;13.05;;
10226;SDS011;15634;48.766;2.272;2023-03-01T13:07:52;20.42;;;12.90;;
10226;SDS011;15634;48.766;2.272;2023-03-01T13:10:24;21.60;;;12.87;;
10226;SDS011;15634;48.766;2.272;2023-03-01T13:13:02;21.27;;;12.45;;
10226;SDS011;15634;48.766;2.272;2023-03-01T13:15:40;22.52;;;12.90;;
10226;SDS011;15634;48.766;2.272;2023-03-01T13:20:57;19.20;;;12.70;;
10226;SDS011;15634;48.766;2.272;2023-03-01T13:23:26;21.00;;;12.63;;
10226;SDS011;15634;48.766;2.272;2023-03-01T13:26:06;19.52;;;12.55;;
10226;SDS011;15634;48.766;2.272;2023-03-01T13:34:42;22.30;;;13.05;;
10226;SDS011;15634;48.766;2.272;2023-03-01T13:37:16;19.05;;;12.40;;
10226;SDS011;15634;48.766;2.272;2023-03-01T13:39:46;23.50;;;13.65;;
10226;SDS011;15634;48.766;2.272;2023-03-01T13:42:30;20.27;;;12.95;;
10226;SDS011;15634;48.766;2.272;2023-03-01T13:45:04;22.08;;;13.45;;
10226;SDS011;15634;48.766;2.272;2023-03-01T13:47:48;21.88;;;13.27;;
10226;SDS011;15634;48.766;2.272;2023-03-01T13:50:19;21.95;;;13.82;;
10226;SDS011;15634;48.766;2.272;2023-03-01T13:52:49;19.88;;;13.48;;
10226;SDS011;15634;48.766;2.272;2023-03-01T13:55:19;20.90;;;12.18;;
10226;SDS011;15634;48.766;2.272;2023-03-01T13:57:50;19.23;;;12.88;;
10226;SDS011;15634;48.766;2.272;2023-03-01T14:00:27;20.87;;;12.43;;
10226;SDS011;15634;48.766;2.272;2023-03-01T14:03:00;20.25;;;12.70;;
10226;SDS011;15634;48.766;2.272;2023-03-01T14:05:29;19.73;;;12.65;;
10226;SDS011;15634;48.766;2.272;2023-03-01T14:07:55;19.80;;;13.50;;
10226;SDS011;15634;48.766;2.272;2023-03-01T14:10:22;24.30;;;13.75;;
10226;SDS011;15634;48.766;2.272;2023-03-01T14:12:52;19.80;;;12.27;;
10226;SDS011;15634;48.766;2.272;2023-03-01T14:15:22;21.80;;;13.10;;
10226;SDS011;15634;48.766;2.272;2023-03-01T14:17:56;21.83;;;13.23;;
10226;SDS011;15634;48.766;2.272;2023-03-01T14:20:26;23.23;;;13.53;;
10226;SDS011;15634;48.766;2.272;2023-03-01T14:22:54;21.20;;;13.55;;
10226;SDS011;15634;48.766;2.272;2023-03-01T14:25:24;19.88;;;12.57;;
10226;SDS011;15634;48.766;2.272;2023-03-01T14:27:56;20.80;;;13.65;;
10226;SDS011;15634;48.766;2.272;2023-03-01T14:30:30;22.85;;;13.27;;
10226;SDS011;15634;48.766;2.272;2023-03-01T14:33:01;23.20;;;13.75;;
10226;SDS011;15634;48.766;2.272;2023-03-01T14:35:29;24.40;;;12.07;;
10226;SDS011;15634;48.766;2.272;2023-03-01T14:37:57;20.95;;;12.93;;
10226;SDS011;15634;48.766;2.272;2023-03-01T14:40:25;21.85;;;13.05;;
10226;SDS011;15634;48.766;2.272;2023-03-01T14:42:53;18.73;;;12.18;;
10226;SDS011;15634;48.766;2.272;2023-03-01T14:45:22;19.52;;;12.27;;
10226;SDS011;15634;48.766;2.272;2023-03-01T14:47:51;22.58;;;12.55;;
10226;SDS011;15634;48.766;2.272;2023-03-01T14:50:21;16.75;;;11.48;;
10226;SDS011;15634;48.766;2.272;2023-03-01T14:52:51;22.88;;;13.20;;
10226;SDS011;15634;48.766;2.272;2023-03-01T14:55:20;20.73;;;13.27;;
10226;SDS011;15634;48.766;2.272;2023-03-01T14:57:48;22.75;;;13.45;;
10226;SDS011;15634;48.766;2.272;2023-03-01T15:00:17;23.27;;;14.48;;